หน้าหลัก
METAR-TAF:

METAR-TAF

ท่าอากาศยาน :

ลอนดอน Southend, อังกฤษ

ละติจูด: 51-34N, ลองจิจูด: 000-42E, ความสูง: 15 ม.

การสังเกตสภาพอากาศปัจจุบัน

รายงานได้ทำขึ้นเมื่อ 3 ชั่วโมงและ 19 นาทีที่แล้ว ณ เวลา 21:20 UTC
ลม 4 นอตจากตะวันออกเฉียงเหนือ
อุณหภูมิ 14°C
ความชื้น 88%
ความกดอากาศ 1016 hPa
ทัศนวิสัย 10 กม. หรือมากกว่า
มีเมฆน้อยที่ความสูง 4200 ฟุต

METAR: EGMC 182120Z 05004KT 9999 FEW042 14/12 Q1016

เวลา: 01:39 (00:39 UTC)

การพยากรณ์

รายงานได้ทำขึ้นเมื่อ 7 ชั่วโมงและ 37 นาทีที่แล้ว ณ เวลา 17:02 UTC
การพยากรณ์มีผลตั้งแต่วันที่ 18 ณ เวลา 18 UTC จนถึงวันที่ 18 ณ เวลา 22 UTC
ลม 9 นอตจากตะวันออก/ตะวันออกเฉียงเหนือ
ทัศนวิสัย 10 กม. หรือมากกว่า
มีเมฆน้อยที่ความสูง 4000 ฟุต

TAF: EGMC 181702Z 1818/1822 07009KT 9999 FEW040

สังเกตการณ์สภาพอากาศและพยากรณ์อากาศของสนามบินมากกว่า 4000 แห่ง (รายงาน METAR และ TAF).

สถานีที่ดูได้จะแสดงไว้ด้วยจุดสีเหลืองและสีแดงบนแผนที่.

เลื่อนเมาส์ไปเหนือจุดเพื่อดูชื่อสถานี.

แล้วคลิกเพื่อดูสังเกตการณ์และการพยากรณ์สภาพอากาศ.

ในการเปลี่ยนแผนที่: คลิกที่ปุ่มสีเขียวที่มีกากบาทสีดำเพื่อซูมเข้า; ที่ปุ่มสีเขียวที่มีขีดเพื่อซูมออก; หรือที่ลูกศรสีเขียวเพื่อไปยังแผนที่ที่อยู่ติดกัน.


METAR-TAF: